createdAt,value
2023-01-13T00:01:34.670Z,99864.45
2023-01-13T00:03:48.089Z,99859.66
2023-01-13T00:06:00.868Z,99860.61
2023-01-13T00:08:13.647Z,99863.06
2023-01-13T00:10:26.295Z,99859.46
2023-01-13T00:12:40.803Z,99856.83
2023-01-13T00:14:53.502Z,99853.41
2023-01-13T00:17:06.175Z,99851.05
2023-01-13T00:19:18.817Z,99853.60
2023-01-13T00:21:31.579Z,99853.41
2023-01-13T00:23:44.945Z,99846.74
2023-01-13T00:25:59.107Z,99843.85
2023-01-13T00:28:11.714Z,99840.44
2023-01-13T00:30:24.367Z,99842.04
2023-01-13T00:32:36.990Z,99840.58
2023-01-13T00:34:49.641Z,99841.04
2023-01-13T00:37:02.431Z,99840.75
2023-01-13T00:39:15.357Z,99840.33
2023-01-13T00:41:29.227Z,99838.86
2023-01-13T00:43:42.454Z,99839.64
2023-01-13T00:45:55.498Z,99836.22
2023-01-13T00:48:08.417Z,99837.53
2023-01-13T00:50:21.020Z,99837.54
2023-01-13T00:52:33.712Z,99833.72
2023-01-13T00:54:46.318Z,99832.16
2023-01-13T00:56:58.890Z,99838.70
2023-01-13T00:59:13.613Z,99837.80
2023-01-13T01:01:26.417Z,99836.61
2023-01-13T01:03:39.464Z,99837.91
2023-01-13T01:05:52.088Z,99832.65
2023-01-13T01:08:05.243Z,99833.95
2023-01-13T01:10:17.968Z,99834.09
2023-01-13T01:12:30.814Z,99835.07
2023-01-13T01:14:43.557Z,99827.48
2023-01-13T01:16:56.159Z,99831.27
2023-01-13T01:19:10.188Z,99826.27
2023-01-13T01:21:24.916Z,99825.27
2023-01-13T01:23:38.667Z,99823.00
2023-01-13T01:25:51.386Z,99819.55
2023-01-13T01:28:04.030Z,99816.66
2023-01-13T01:30:16.838Z,99811.42
2023-01-13T01:32:29.499Z,99806.05
2023-01-13T01:34:42.167Z,99803.42
2023-01-13T01:36:54.797Z,99800.16
2023-01-13T01:39:07.500Z,99796.82
2023-01-13T01:41:26.250Z,99792.23
2023-01-13T01:44:04.552Z,99784.25
2023-01-13T01:46:17.421Z,99779.29
2023-01-13T01:48:40.186Z,99778.73
2023-01-13T01:50:53.055Z,99774.14
2023-01-13T01:53:12.777Z,99774.60
2023-01-13T01:55:34.884Z,99772.89
2023-01-13T01:57:54.739Z,99774.46
2023-01-13T02:00:08.304Z,99776.96
2023-01-13T02:02:22.303Z,99776.41
2023-01-13T02:04:40.906Z,99768.59
2023-01-13T02:06:53.855Z,99763.92
2023-01-13T02:09:07.166Z,99760.59
2023-01-13T02:11:50.682Z,99755.66
2023-01-13T02:14:03.374Z,99751.62
2023-01-13T02:16:23.363Z,99749.16
2023-01-13T02:18:47.603Z,99752.02
2023-01-13T02:21:07.719Z,99754.46
2023-01-13T02:23:57.552Z,99757.73
2023-01-13T02:26:21.518Z,99760.88
2023-01-13T02:29:09.703Z,99766.90
2023-01-13T02:31:41.088Z,99766.40
2023-01-13T02:34:01.403Z,99765.35
2023-01-13T02:36:29.327Z,99766.63
2023-01-13T02:38:55.836Z,99760.76
2023-01-13T02:41:37.501Z,99762.76
2023-01-13T02:44:08.216Z,99762.94
2023-01-13T02:46:27.709Z,99764.85
2023-01-13T02:48:41.975Z,99760.29
2023-01-13T02:51:00.107Z,99757.65
2023-01-13T02:53:22.913Z,99760.14
2023-01-13T02:55:39.349Z,99764.58
2023-01-13T02:57:53.224Z,99759.13
2023-01-13T03:00:11.424Z,99762.77
2023-01-13T03:02:25.760Z,99760.86
2023-01-13T03:04:48.836Z,99758.20
2023-01-13T03:07:22.942Z,99753.06
2023-01-13T03:09:43.600Z,99753.63
2023-01-13T03:12:09.169Z,99755.50
2023-01-13T03:14:38.920Z,99752.37
2023-01-13T03:17:27.213Z,99745.74
2023-01-13T03:20:02.509Z,99746.93
2023-01-13T03:22:26.772Z,99739.44
2023-01-13T03:24:50.037Z,99741.93
2023-01-13T03:27:15.221Z,99740.73
2023-01-13T03:29:54.803Z,99734.84
2023-01-13T03:32:23.437Z,99730.51
2023-01-13T03:34:49.095Z,99738.13
2023-01-13T03:37:05.669Z,99742.50
2023-01-13T03:39:24.921Z,99742.06
2023-01-13T03:41:57.262Z,99743.20
2023-01-13T03:44:22.862Z,99739.58
2023-01-13T03:47:04.071Z,99742.69
2023-01-13T03:49:22.321Z,99741.42
2023-01-13T03:51:39.110Z,99738.77
2023-01-13T03:53:58.238Z,99734.63
2023-01-13T03:56:19.723Z,99733.79
2023-01-13T03:58:40.481Z,99734.69
2023-01-13T04:01:01.355Z,99735.45
2023-01-13T04:03:23.201Z,99735.34
2023-01-13T04:05:42.033Z,99729.20
2023-01-13T04:08:16.639Z,99728.08
2023-01-13T04:10:41.397Z,99731.42
2023-01-13T04:13:01.292Z,99731.71
2023-01-13T04:15:14.528Z,99733.00
2023-01-13T04:17:27.064Z,99733.61
2023-01-13T04:19:39.672Z,99730.73
2023-01-13T04:21:52.436Z,99730.80
2023-01-13T04:24:05.158Z,99729.72
2023-01-13T04:26:19.671Z,99729.70
2023-01-13T04:28:33.514Z,99723.59
2023-01-13T04:30:46.905Z,99721.10
2023-01-13T04:32:59.657Z,99725.56
2023-01-13T04:35:12.332Z,99721.17
2023-01-13T04:37:24.883Z,99716.27
2023-01-13T04:39:37.639Z,99711.77
2023-01-13T04:41:59.198Z,99713.46
2023-01-13T04:44:11.723Z,99710.50
2023-01-13T04:46:24.296Z,99705.96
2023-01-13T04:48:37.006Z,99707.82
2023-01-13T04:50:49.555Z,99708.25
2023-01-13T04:53:02.301Z,99708.52
2023-01-13T04:55:16.064Z,99708.31
2023-01-13T04:57:28.701Z,99707.23
2023-01-13T04:59:42.049Z,99704.11
2023-01-13T05:01:54.685Z,99705.63
2023-01-13T05:04:08.425Z,99704.88
2023-01-13T05:06:21.044Z,99706.07
2023-01-13T05:08:33.591Z,99703.28
2023-01-13T05:10:46.118Z,99701.77
2023-01-13T05:13:17.316Z,99702.77
2023-01-13T05:15:48.213Z,99704.85
2023-01-13T05:18:01.582Z,99703.09
2023-01-13T05:20:14.523Z,99705.95
2023-01-13T05:22:45.779Z,99701.56
2023-01-13T05:25:17.232Z,99704.76
2023-01-13T05:27:30.838Z,99703.63
2023-01-13T05:29:43.425Z,99705.11
2023-01-13T05:31:55.951Z,99703.09
2023-01-13T05:34:08.528Z,99704.10
2023-01-13T05:36:21.112Z,99706.27
2023-01-13T05:38:33.662Z,99707.94
2023-01-13T05:41:05.115Z,99702.59
2023-01-13T05:43:19.815Z,99706.83
2023-01-13T05:45:32.462Z,99709.02
2023-01-13T05:47:45.159Z,99710.16
2023-01-13T05:49:57.777Z,99713.57
2023-01-13T05:52:10.319Z,99715.80
2023-01-13T05:54:22.893Z,99715.77
2023-01-13T05:56:35.468Z,99712.63
2023-01-13T05:58:47.991Z,99710.23
2023-01-13T06:01:07.164Z,99707.67
2023-01-13T06:03:20.219Z,99710.77
2023-01-13T06:05:33.696Z,99704.73
2023-01-13T06:07:46.195Z,99704.13
2023-01-13T06:09:58.790Z,99701.77
2023-01-13T06:12:12.564Z,99703.31
2023-01-13T06:14:25.196Z,99700.00
2023-01-13T06:16:38.585Z,99703.05
2023-01-13T06:18:51.155Z,99702.94
2023-01-13T06:21:04.846Z,99701.21
2023-01-13T06:23:17.430Z,99706.13
2023-01-13T06:25:49.695Z,99705.36
2023-01-13T06:28:03.006Z,99704.54
2023-01-13T06:30:15.758Z,99701.66
2023-01-13T06:32:35.463Z,99702.21
2023-01-13T06:34:53.661Z,99704.36
2023-01-13T06:37:06.622Z,99702.08
2023-01-13T06:39:24.375Z,99702.52
2023-01-13T06:41:56.129Z,99704.55
2023-01-13T06:44:09.028Z,99704.23
2023-01-13T06:46:21.590Z,99706.59
2023-01-13T06:48:35.386Z,99704.20
2023-01-13T06:50:48.163Z,99704.48
2023-01-13T06:53:00.656Z,99704.75
2023-01-13T06:55:13.565Z,99704.81
2023-01-13T06:57:26.194Z,99708.23
2023-01-13T06:59:39.107Z,99707.88
2023-01-13T07:01:52.039Z,99711.91
2023-01-13T07:04:04.848Z,99708.19
2023-01-13T07:06:17.413Z,99705.89
2023-01-13T07:08:29.995Z,99706.52
2023-01-13T07:10:42.587Z,99703.55
2023-01-13T07:13:14.059Z,99706.15
2023-01-13T07:15:27.008Z,99706.30
2023-01-13T07:17:39.614Z,99702.44
2023-01-13T07:19:53.065Z,99707.76
2023-01-13T07:22:05.612Z,99708.35
2023-01-13T07:24:19.098Z,99705.90
2023-01-13T07:26:31.675Z,99708.34
2023-01-13T07:28:44.263Z,99715.59
2023-01-13T07:30:57.559Z,99714.73
2023-01-13T07:33:10.090Z,99712.64
2023-01-13T07:35:23.445Z,99714.89
2023-01-13T07:37:38.065Z,99710.36
2023-01-13T07:39:50.686Z,99713.66
2023-01-13T07:42:22.271Z,99708.29
2023-01-13T07:44:34.770Z,99713.20
2023-01-13T07:46:47.332Z,99709.87
2023-01-13T07:48:59.956Z,99712.96
2023-01-13T07:51:12.670Z,99713.84
2023-01-13T07:53:25.948Z,99715.79
2023-01-13T07:55:43.096Z,99718.23
2023-01-13T07:57:55.604Z,99723.33
2023-01-13T08:00:11.009Z,99722.98
2023-01-13T08:02:25.494Z,99727.73
2023-01-13T08:04:38.642Z,99719.52
2023-01-13T08:06:51.151Z,99721.31
2023-01-13T08:09:04.123Z,99723.98
2023-01-13T08:11:17.285Z,99721.84
2023-01-13T08:13:30.152Z,99718.50
2023-01-13T08:15:43.810Z,99719.86
2023-01-13T08:17:56.370Z,99722.05
2023-01-13T08:20:09.733Z,99722.73
2023-01-13T08:22:22.827Z,99725.27
2023-01-13T08:24:35.340Z,99724.52
2023-01-13T08:26:47.897Z,99724.75
2023-01-13T08:29:00.454Z,99726.56
2023-01-13T08:31:16.260Z,99725.51
2023-01-13T08:33:29.813Z,99729.91
2023-01-13T08:35:42.363Z,99727.02
2023-01-13T08:37:54.910Z,99726.59
2023-01-13T08:40:09.881Z,99723.76
2023-01-13T08:42:22.444Z,99721.08
2023-01-13T08:44:35.066Z,99718.58
2023-01-13T08:46:47.561Z,99717.75
2023-01-13T08:49:00.123Z,99717.89
2023-01-13T08:51:12.991Z,99721.60
2023-01-13T08:53:25.570Z,99721.86
2023-01-13T08:55:40.060Z,99724.08
2023-01-13T08:57:54.464Z,99731.61
2023-01-13T09:00:09.774Z,99730.23
2023-01-13T09:02:24.144Z,99732.63
2023-01-13T09:04:36.837Z,99733.90
2023-01-13T09:06:50.554Z,99737.36
2023-01-13T09:09:03.441Z,99735.11
2023-01-13T09:11:37.923Z,99736.05
2023-01-13T09:13:50.623Z,99738.68
2023-01-13T09:16:03.268Z,99744.78
2023-01-13T09:18:15.835Z,99742.26
2023-01-13T09:20:28.378Z,99738.13
2023-01-13T09:22:41.389Z,99741.60
2023-01-13T09:24:55.122Z,99740.13
2023-01-13T09:27:09.682Z,99740.76
2023-01-13T09:29:22.604Z,99743.13
2023-01-13T09:31:35.309Z,99743.27
2023-01-13T09:34:06.798Z,99744.70
2023-01-13T09:36:19.735Z,99741.24
2023-01-13T09:38:32.271Z,99735.41
2023-01-13T09:40:48.997Z,99733.80
2023-01-13T09:43:33.226Z,99738.73
2023-01-13T09:45:59.744Z,99734.11
2023-01-13T09:48:25.245Z,99739.58
2023-01-13T09:51:00.653Z,99733.86
2023-01-13T09:53:23.003Z,99731.54
2023-01-13T09:55:36.893Z,99727.15
2023-01-13T09:57:49.376Z,99723.92
2023-01-13T10:00:02.518Z,99717.23
2023-01-13T10:02:54.570Z,99715.02
2023-01-13T10:05:28.340Z,99708.59
2023-01-13T10:07:49.627Z,99710.85
2023-01-13T10:10:03.875Z,99708.44
2023-01-13T10:12:43.630Z,99707.56
2023-01-13T10:14:56.285Z,99709.13
2023-01-13T10:17:27.572Z,99707.73
2023-01-13T10:20:06.161Z,99706.48
2023-01-13T10:22:25.062Z,99706.52
2023-01-13T10:25:08.213Z,99707.01
2023-01-13T10:27:28.912Z,99706.70
2023-01-13T10:29:41.482Z,99705.39
2023-01-13T10:31:55.487Z,99697.39
2023-01-13T10:34:08.010Z,99693.83
2023-01-13T10:36:21.546Z,99695.30
2023-01-13T10:38:43.495Z,99690.33
2023-01-13T10:41:02.353Z,99686.89
2023-01-13T10:43:15.007Z,99681.88
2023-01-13T10:45:27.504Z,99686.10
2023-01-13T10:47:40.444Z,99684.64
2023-01-13T10:50:11.130Z,99687.90
2023-01-13T10:52:27.756Z,99684.60
2023-01-13T10:54:51.666Z,99682.63
2023-01-13T10:57:15.616Z,99683.64
2023-01-13T10:59:28.185Z,99681.41
2023-01-13T11:01:55.951Z,99680.73
2023-01-13T11:04:28.933Z,99673.84
2023-01-13T11:06:45.923Z,99668.86
2023-01-13T11:08:58.713Z,99669.53
2023-01-13T11:11:40.667Z,99674.66
2023-01-13T11:14:17.932Z,99676.63
2023-01-13T11:16:30.784Z,99678.40
2023-01-13T11:19:11.895Z,99670.39
2023-01-13T11:21:30.355Z,99672.74
2023-01-13T11:23:49.998Z,99670.64
2023-01-13T11:26:10.798Z,99671.81
2023-01-13T11:28:35.304Z,99667.84
2023-01-13T11:30:56.615Z,99667.07
2023-01-13T11:33:15.232Z,99663.56
2023-01-13T11:35:31.471Z,99662.44
2023-01-13T11:37:51.288Z,99656.35
2023-01-13T11:40:13.504Z,99649.25
2023-01-13T11:42:41.311Z,99646.13
2023-01-13T11:44:59.588Z,99643.31
2023-01-13T11:47:13.675Z,99646.80
2023-01-13T11:49:30.765Z,99645.19
2023-01-13T11:51:54.908Z,99646.39
2023-01-13T11:54:40.987Z,99645.75
2023-01-13T11:57:19.521Z,99647.69
2023-01-13T12:00:14.561Z,99646.52
2023-01-13T12:03:12.487Z,99653.25
2023-01-13T12:05:44.564Z,99659.41
2023-01-13T12:08:45.723Z,99661.51
2023-01-13T12:11:25.443Z,99654.52
2023-01-13T12:14:19.848Z,99658.93
2023-01-13T12:16:32.891Z,99659.27
2023-01-13T12:19:07.432Z,99657.77
2023-01-13T12:21:28.105Z,99652.98
2023-01-13T12:23:50.184Z,99649.79
2023-01-13T12:26:12.235Z,99648.96
2023-01-13T12:28:41.460Z,99650.34
2023-01-13T12:31:00.788Z,99651.36
2023-01-13T12:33:59.087Z,99654.63
2023-01-13T12:36:34.269Z,99651.51
2023-01-13T12:38:57.855Z,99646.43
2023-01-13T12:41:24.664Z,99644.23
2023-01-13T12:43:57.048Z,99643.77
2023-01-13T12:46:18.508Z,99644.85
2023-01-13T12:48:59.223Z,99649.27
2023-01-13T12:51:34.270Z,99648.17
2023-01-13T12:53:46.824Z,99651.81
2023-01-13T12:56:27.263Z,99655.63
2023-01-13T12:58:39.849Z,99650.14
2023-01-13T13:01:00.872Z,99649.28
2023-01-13T13:03:18.554Z,99650.58
2023-01-13T13:06:01.323Z,99652.50
2023-01-13T13:08:40.936Z,99657.77
2023-01-13T13:11:55.238Z,99668.04
2023-01-13T13:14:13.785Z,99672.66
2023-01-13T13:16:26.460Z,99669.81
2023-01-13T13:18:39.089Z,99667.30
2023-01-13T13:21:08.954Z,99668.34
2023-01-13T13:23:48.293Z,99669.99
2023-01-13T13:26:16.323Z,99672.03
2023-01-13T13:28:36.893Z,99675.52
2023-01-13T13:31:01.849Z,99675.16
2023-01-13T13:33:46.897Z,99676.91
2023-01-13T13:35:59.363Z,99691.58
2023-01-13T13:38:43.086Z,99690.03
2023-01-13T13:41:14.603Z,99690.65
2023-01-13T13:43:47.023Z,99691.91
2023-01-13T13:46:18.499Z,99693.65
2023-01-13T13:48:31.201Z,99700.70
2023-01-13T13:50:48.197Z,99706.19
2023-01-13T13:53:08.461Z,99706.69
2023-01-13T13:55:24.775Z,99714.88
2023-01-13T13:57:40.035Z,99715.27
2023-01-13T13:59:58.415Z,99724.92
2023-01-13T14:02:19.909Z,99722.60
2023-01-13T14:04:35.500Z,99730.19
2023-01-13T14:07:06.513Z,99739.88
2023-01-13T14:09:20.606Z,99749.63
2023-01-13T14:11:33.869Z,99758.67
2023-01-13T14:13:46.445Z,99766.70
2023-01-13T14:16:09.776Z,99773.69
2023-01-13T14:18:23.149Z,99777.66
2023-01-13T14:20:36.911Z,99773.95
2023-01-13T14:22:52.290Z,99773.65
2023-01-13T14:25:30.452Z,99772.38
2023-01-13T14:27:43.290Z,99771.31
2023-01-13T14:29:59.161Z,99770.20
2023-01-13T14:32:18.473Z,99771.39
2023-01-13T14:34:33.380Z,99775.16
2023-01-13T14:36:50.924Z,99778.92
2023-01-13T14:39:03.444Z,99777.92
2023-01-13T14:41:29.107Z,99777.99
2023-01-13T14:43:46.557Z,99779.30
2023-01-13T14:46:02.451Z,99776.88
2023-01-13T14:48:15.054Z,99779.83
2023-01-13T14:50:32.653Z,99782.98
2023-01-13T14:52:50.825Z,99781.51
2023-01-13T14:55:06.825Z,99775.84
2023-01-13T14:57:33.031Z,99774.74
2023-01-13T15:00:13.291Z,99765.43
2023-01-13T15:02:33.087Z,99778.77
2023-01-13T15:04:46.599Z,99792.15
2023-01-13T15:07:00.201Z,99789.09
2023-01-13T15:09:13.652Z,99792.41
2023-01-13T15:11:28.860Z,99787.89
2023-01-13T15:13:53.053Z,99781.20
2023-01-13T15:16:21.924Z,99795.09
2023-01-13T15:18:39.898Z,99794.61
2023-01-13T15:20:53.115Z,99800.50
2023-01-13T15:23:05.773Z,99804.91
2023-01-13T15:25:19.013Z,99802.63
2023-01-13T15:27:31.565Z,99807.13
2023-01-13T15:29:44.231Z,99813.25
2023-01-13T15:31:56.826Z,99811.16
2023-01-13T15:34:09.375Z,99815.33
2023-01-13T15:36:31.132Z,99813.56
2023-01-13T15:38:43.873Z,99810.95
2023-01-13T15:40:56.497Z,99807.05
2023-01-13T15:43:36.947Z,99809.59
2023-01-13T15:46:25.041Z,99805.64
2023-01-13T15:48:37.692Z,99800.83
2023-01-13T15:50:51.109Z,99799.27
2023-01-13T15:53:04.719Z,99802.60
2023-01-13T15:55:17.351Z,99807.61
2023-01-13T15:57:35.612Z,99817.30
2023-01-13T15:59:48.731Z,99813.11
2023-01-13T16:02:01.260Z,99807.45
2023-01-13T16:04:13.808Z,99805.93
2023-01-13T16:06:32.555Z,99807.30
2023-01-13T16:08:45.171Z,99821.70
2023-01-13T16:10:57.711Z,99824.98
2023-01-13T16:13:11.346Z,99821.69
2023-01-13T16:15:25.910Z,99831.36
2023-01-13T16:17:38.667Z,99831.11
2023-01-13T16:19:51.875Z,99829.95
2023-01-13T16:22:04.441Z,99833.04
2023-01-13T16:24:16.970Z,99833.06
2023-01-13T16:26:30.045Z,99839.91
2023-01-13T16:28:42.544Z,99843.63
2023-01-13T16:30:55.122Z,99847.82
2023-01-13T16:33:07.664Z,99852.97
2023-01-13T16:35:20.678Z,99856.95
2023-01-13T16:37:33.290Z,99858.69
2023-01-13T16:39:45.931Z,99861.55
2023-01-13T16:41:58.506Z,99856.84
2023-01-13T16:44:11.091Z,99860.44
2023-01-13T16:46:26.220Z,99864.02
2023-01-13T16:48:38.762Z,99868.00
2023-01-13T16:50:51.256Z,99870.11
2023-01-13T16:53:04.421Z,99870.52
2023-01-13T16:55:17.034Z,99875.97
2023-01-13T16:57:29.586Z,99880.68
2023-01-13T16:59:42.195Z,99882.86
2023-01-13T17:01:54.859Z,99887.48
2023-01-13T17:04:14.751Z,99888.67
2023-01-13T17:06:38.357Z,99885.83
2023-01-13T17:08:52.905Z,99895.96
2023-01-13T17:11:05.461Z,99903.01
2023-01-13T17:13:19.107Z,99910.86
2023-01-13T17:15:34.080Z,99914.80
2023-01-13T17:17:51.787Z,99919.69
2023-01-13T17:20:05.333Z,99915.30
2023-01-13T17:22:19.154Z,99909.47
2023-01-13T17:24:35.034Z,99903.39
2023-01-13T17:26:49.898Z,99897.95
2023-01-13T17:29:05.967Z,99894.23
2023-01-13T17:31:18.553Z,99894.71
2023-01-13T17:33:37.036Z,99897.38
2023-01-13T17:35:49.624Z,99903.27
2023-01-13T17:38:02.962Z,99912.64
2023-01-13T17:40:15.848Z,99920.85
2023-01-13T17:42:29.598Z,99924.62
2023-01-13T17:44:42.419Z,99923.40
2023-01-13T17:46:54.970Z,99914.45
2023-01-13T17:49:10.685Z,99918.17
2023-01-13T17:51:25.179Z,99915.45
2023-01-13T17:53:40.767Z,99918.94
2023-01-13T17:55:55.388Z,99922.82
2023-01-13T17:58:07.883Z,99922.08
2023-01-13T18:00:20.694Z,99922.55
2023-01-13T18:02:33.412Z,99921.27
2023-01-13T18:04:46.014Z,99922.07
2023-01-13T18:06:58.549Z,99924.89
2023-01-13T18:09:11.495Z,99922.55
2023-01-13T18:11:24.188Z,99921.80
2023-01-13T18:13:38.417Z,99922.93
2023-01-13T18:16:00.739Z,99926.82
2023-01-13T18:18:13.440Z,99932.61
2023-01-13T18:20:44.779Z,99928.10
2023-01-13T18:23:16.246Z,99935.89
2023-01-13T18:25:47.255Z,99940.88
2023-01-13T18:28:03.998Z,99939.42
2023-01-13T18:30:16.637Z,99939.61
2023-01-13T18:32:33.140Z,99947.09
2023-01-13T18:34:46.515Z,99943.86
2023-01-13T18:36:59.336Z,99940.44
2023-01-13T18:39:12.008Z,99940.45
2023-01-13T18:41:43.439Z,99942.96
2023-01-13T18:43:55.963Z,99948.69
2023-01-13T18:46:08.533Z,99947.74
2023-01-13T18:48:21.102Z,99951.29
2023-01-13T18:50:34.777Z,99953.08
2023-01-13T18:52:47.571Z,99954.55
2023-01-13T18:55:00.107Z,99958.73
2023-01-13T18:57:13.751Z,99964.33
2023-01-13T18:59:26.481Z,99968.17
2023-01-13T19:01:39.160Z,99969.02
2023-01-13T19:03:56.436Z,99966.63
2023-01-13T19:06:11.686Z,99973.64
2023-01-13T19:08:24.261Z,99984.23
2023-01-13T19:10:39.705Z,99985.76
2023-01-13T19:12:52.265Z,99991.13
2023-01-13T19:15:05.174Z,99995.27
2023-01-13T19:17:17.719Z,99997.16
2023-01-13T19:19:31.462Z,99998.92
2023-01-13T19:21:44.009Z,100006.13
2023-01-13T19:23:56.930Z,100010.52
2023-01-13T19:26:11.150Z,100011.90
2023-01-13T19:28:23.731Z,100013.50
2023-01-13T19:30:36.250Z,100014.05
2023-01-13T19:32:48.810Z,100015.25
2023-01-13T19:35:01.393Z,100010.66
2023-01-13T19:37:14.096Z,100009.45
2023-01-13T19:39:26.643Z,100008.77
2023-01-13T19:41:57.499Z,100015.30
2023-01-13T19:44:31.569Z,100016.46
2023-01-13T19:46:44.128Z,100020.44
2023-01-13T19:48:56.685Z,100018.73
2023-01-13T19:51:10.083Z,100022.33
2023-01-13T19:53:22.636Z,100022.09
2023-01-13T19:55:35.374Z,100023.35
2023-01-13T19:57:48.085Z,100024.05
2023-01-13T20:00:00.857Z,100026.88
2023-01-13T20:02:27.781Z,100023.77
2023-01-13T20:04:44.629Z,100034.28
2023-01-13T20:06:57.390Z,100035.42
2023-01-13T20:09:09.971Z,100035.70
2023-01-13T20:11:22.566Z,100035.44
2023-01-13T20:13:35.188Z,100041.52
2023-01-13T20:15:47.965Z,100044.48
2023-01-13T20:18:00.758Z,100049.96
2023-01-13T20:20:15.771Z,100049.55
2023-01-13T20:22:28.427Z,100054.80
2023-01-13T20:24:41.179Z,100057.77
2023-01-13T20:26:54.550Z,100059.05
2023-01-13T20:29:07.236Z,100059.12
2023-01-13T20:31:20.073Z,100060.21
2023-01-13T20:33:32.703Z,100058.54
2023-01-13T20:35:45.357Z,100057.23
2023-01-13T20:37:58.061Z,100062.58
2023-01-13T20:40:14.932Z,100069.29
2023-01-13T20:42:45.073Z,100074.16
2023-01-13T20:44:59.945Z,100079.48
2023-01-13T20:47:14.566Z,100083.70
2023-01-13T20:49:27.976Z,100087.95
2023-01-13T20:51:41.550Z,100092.36
2023-01-13T20:53:56.723Z,100095.48
2023-01-13T20:56:09.741Z,100099.56
2023-01-13T20:58:22.459Z,100106.92
2023-01-13T21:00:35.158Z,100105.25
2023-01-13T21:02:47.760Z,100102.70
2023-01-13T21:05:00.335Z,100099.96
2023-01-13T21:07:13.194Z,100098.96
2023-01-13T21:09:27.205Z,100102.66
2023-01-13T21:11:58.137Z,100102.83
2023-01-13T21:14:40.781Z,100106.29
2023-01-13T21:16:53.309Z,100111.65
2023-01-13T21:19:10.560Z,100116.04
2023-01-13T21:21:23.177Z,100118.56
2023-01-13T21:23:35.782Z,100121.80
2023-01-13T21:25:48.335Z,100120.20
2023-01-13T21:28:08.218Z,100121.86
2023-01-13T21:30:21.012Z,100127.05
2023-01-13T21:32:33.507Z,100126.56
2023-01-13T21:34:46.519Z,100128.11
2023-01-13T21:36:59.487Z,100129.17
2023-01-13T21:39:14.126Z,100129.92
2023-01-13T21:41:45.159Z,100127.70
2023-01-13T21:44:16.639Z,100126.98
2023-01-13T21:46:47.739Z,100126.85
2023-01-13T21:49:00.374Z,100130.35
2023-01-13T21:51:13.035Z,100132.13
2023-01-13T21:53:25.604Z,100132.06
2023-01-13T21:55:38.165Z,100136.79
2023-01-13T21:58:11.653Z,100140.48
2023-01-13T22:00:26.786Z,100144.63
2023-01-13T22:02:39.611Z,100151.81
2023-01-13T22:04:52.466Z,100152.93
2023-01-13T22:07:06.537Z,100153.97
2023-01-13T22:09:19.078Z,100153.86
2023-01-13T22:11:32.388Z,100153.96
2023-01-13T22:14:03.602Z,100151.77
2023-01-13T22:16:16.233Z,100154.50
2023-01-13T22:18:28.880Z,100153.72
2023-01-13T22:20:42.036Z,100159.98
2023-01-13T22:22:54.549Z,100158.27
2023-01-13T22:25:10.951Z,100162.96
2023-01-13T22:27:26.106Z,100161.14
2023-01-13T22:29:38.701Z,100161.36
2023-01-13T22:31:51.232Z,100161.59
2023-01-13T22:34:04.014Z,100162.86
2023-01-13T22:36:16.616Z,100164.63
2023-01-13T22:38:29.198Z,100167.98
2023-01-13T22:40:41.761Z,100165.96
2023-01-13T22:42:54.382Z,100167.79
2023-01-13T22:45:09.943Z,100168.73
2023-01-13T22:47:22.490Z,100171.00
2023-01-13T22:49:35.276Z,100173.45
2023-01-13T22:51:47.823Z,100175.73
2023-01-13T22:54:00.361Z,100177.28
2023-01-13T22:56:18.564Z,100184.16
2023-01-13T22:58:31.598Z,100186.24
2023-01-13T23:00:44.132Z,100189.21
2023-01-13T23:02:56.747Z,100192.20
2023-01-13T23:05:09.588Z,100192.58
2023-01-13T23:07:22.186Z,100192.11
2023-01-13T23:09:34.743Z,100194.23
2023-01-13T23:11:47.990Z,100192.94
2023-01-13T23:14:04.277Z,100192.80
2023-01-13T23:16:21.062Z,100191.02
2023-01-13T23:18:34.409Z,100192.81
2023-01-13T23:20:46.945Z,100198.94
2023-01-13T23:22:59.683Z,100204.20
2023-01-13T23:25:12.258Z,100211.94
2023-01-13T23:27:24.813Z,100213.06
2023-01-13T23:29:37.763Z,100215.00
2023-01-13T23:31:50.370Z,100216.29
2023-01-13T23:34:02.978Z,100222.16
2023-01-13T23:36:21.471Z,100215.48
2023-01-13T23:38:34.127Z,100216.61
2023-01-13T23:40:46.661Z,100213.40
2023-01-13T23:42:59.260Z,100206.94
2023-01-13T23:45:11.872Z,100208.02
2023-01-13T23:47:24.470Z,100212.38
2023-01-13T23:49:37.025Z,100212.92
2023-01-13T23:51:51.113Z,100213.13
2023-01-13T23:54:03.752Z,100214.71
2023-01-13T23:56:19.166Z,100216.64
2023-01-13T23:58:33.628Z,100215.66
